Time;durP1;ratioP1;P1;durP2;ratioP2;P2;SDS_P1;SDS_P2;PMS_P1;PMS_P2;Temp;Humidity;BMP_temperature;BMP_pressure;BME280_temperature;BME280_humidity;BME280_pressure;Samples;Min_cycle;Max_cycle;Signal;HPM_P1;HPM_P2
2023/11/18 00:01:48;;;;;;;14.88;12.45;;;;;;;0.91;83.29;99028.38;4995309;28;20014;-69
2023/11/18 00:04:15;;;;;;;17.95;14.40;;;;;;;0.89;83.13;99030.38;4976776;28;20498;-69
2023/11/18 00:06:44;;;;;;;15.00;12.95;;;;;;;0.84;82.92;99027.38;4986047;28;20026;-69
2023/11/18 00:09:13;;;;;;;16.40;11.77;;;;;;;0.83;82.53;99027.53;4991873;28;20030;-70
2023/11/18 00:11:39;;;;;;;15.30;12.50;;;;;;;0.76;82.24;99030.03;4971961;28;20093;-69
2023/11/18 00:14:06;;;;;;;18.77;12.55;;;;;;;0.81;82.38;99046.28;4993387;28;20045;-69
2023/11/18 00:16:31;;;;;;;17.67;12.77;;;;;;;0.74;83.05;99042.59;4993755;28;20030;-70
2023/11/18 00:18:58;;;;;;;15.65;12.35;;;;;;;0.66;82.25;99034.63;4995040;28;20040;-72
2023/11/18 00:21:24;;;;;;;13.60;12.20;;;;;;;0.74;82.20;99036.47;4990633;28;20018;-70
2023/11/18 00:23:50;;;;;;;14.45;11.40;;;;;;;0.73;82.45;99046.25;4994530;28;20050;-68
2023/11/18 00:26:16;;;;;;;15.55;11.80;;;;;;;0.69;82.03;99044.91;4990553;28;20254;-69
2023/11/18 00:28:43;;;;;;;14.00;11.65;;;;;;;0.59;82.13;99028.31;4993008;28;20117;-71
2023/11/18 00:31:08;;;;;;;13.93;12.50;;;;;;;0.71;81.46;99053.53;4977814;28;20089;-69
2023/11/18 00:33:34;;;;;;;14.43;12.10;;;;;;;0.55;82.40;99026.97;4994337;28;20486;-71
2023/11/18 00:36:00;;;;;;;11.40;10.13;;;;;;;0.61;82.92;99047.50;4994637;28;20030;-70
2023/11/18 00:38:26;;;;;;;11.88;10.00;;;;;;;0.59;82.41;99045.03;4984475;28;20397;-70
2023/11/18 00:40:52;;;;;;;11.48;9.77;;;;;;;0.59;82.05;99050.34;4994185;28;20018;-70
2023/11/18 00:43:17;;;;;;;11.18;9.98;;;;;;;0.51;81.97;99037.03;4992822;28;20046;-70
2023/11/18 00:45:43;;;;;;;11.40;9.65;;;;;;;0.58;82.71;99042.56;4994027;28;20026;-69
2023/11/18 00:48:09;;;;;;;11.93;10.60;;;;;;;0.60;82.12;99043.22;4992379;28;20057;-70
2023/11/18 00:50:35;;;;;;;11.38;10.18;;;;;;;0.54;81.88;99041.19;4976227;28;20026;-71
2023/11/18 00:53:00;;;;;;;10.65;9.57;;;;;;;0.53;81.76;99047.50;4971742;28;20039;-67
2023/11/18 00:55:26;;;;;;;11.35;9.48;;;;;;;0.47;82.19;99034.88;4983321;28;20630;-70
2023/11/18 00:57:51;;;;;;;15.80;13.77;;;;;;;0.33;82.17;99043.44;4987501;28;20129;-69
2023/11/18 01:00:21;;;;;;;14.55;10.75;;;;;;;0.39;82.93;99053.41;4984282;28;20053;-71
2023/11/18 01:02:48;;;;;;;12.93;11.60;;;;;;;0.39;81.77;99042.81;4954860;28;20438;-69
2023/11/18 01:05:13;;;;;;;11.55;10.38;;;;;;;0.38;82.41;99041.13;4963861;28;20018;-70
2023/11/18 01:07:40;;;;;;;14.32;11.60;;;;;;;0.37;82.44;99056.22;4978934;28;20395;-70
2023/11/18 01:10:06;;;;;;;13.38;11.50;;;;;;;0.37;82.62;99060.69;4991706;28;20504;-70
2023/11/18 01:12:32;;;;;;;11.73;10.50;;;;;;;0.34;82.48;99061.00;4978146;28;20097;-70
2023/11/18 01:14:57;;;;;;;13.95;12.52;;;;;;;0.36;82.76;99065.16;4959467;28;20422;-68
2023/11/18 01:17:23;;;;;;;13.93;10.48;;;;;;;0.34;82.32;99059.19;4959054;28;20445;-70
2023/11/18 01:19:49;;;;;;;11.68;10.40;;;;;;;0.26;82.27;99042.41;4959441;28;20513;-71
2023/11/18 01:22:15;;;;;;;12.43;9.23;;;;;;;0.31;81.90;99061.31;4990797;28;20056;-71
2023/11/18 01:24:40;;;;;;;10.70;9.60;;;;;;;0.30;82.46;99070.25;4992717;28;20027;-68
2023/11/18 01:27:09;;;;;;;11.98;10.18;;;;;;;0.29;81.66;99065.94;4975133;28;20045;-68
2023/11/18 01:29:35;;;;;;;11.00;9.73;;;;;;;0.28;81.66;99065.09;4959577;28;20033;-68
2023/11/18 01:32:00;;;;;;;10.45;9.25;;;;;;;0.30;82.40;99070.25;4974953;28;20034;-68
2023/11/18 01:34:27;;;;;;;11.00;10.00;;;;;;;0.17;82.50;99061.91;4975559;28;20026;-68
2023/11/18 01:36:53;;;;;;;10.60;9.38;;;;;;;0.22;81.91;99067.56;4990009;28;20038;-68
2023/11/18 01:39:19;;;;;;;10.57;9.55;;;;;;;0.14;82.22;99055.09;4982026;28;20478;-70
2023/11/18 01:41:45;;;;;;;12.45;9.32;;;;;;;0.22;82.55;99067.56;4979124;28;20039;-72
2023/11/18 01:44:13;;;;;;;10.38;9.38;;;;;;;0.21;82.53;99066.72;4976215;28;20564;-70
2023/11/18 01:46:40;;;;;;;10.27;9.30;;;;;;;0.19;81.68;99063.41;4993458;28;20041;-70
2023/11/18 01:49:07;;;;;;;9.20;8.30;;;;;;;0.21;82.62;99068.56;4993775;28;20400;-71
2023/11/18 01:51:35;;;;;;;10.07;8.45;;;;;;;0.13;82.11;99057.91;4979313;28;20089;-70
2023/11/18 01:54:02;;;;;;;10.25;9.25;;;;;;;0.20;82.12;99066.88;4976042;28;20030;-71
2023/11/18 01:56:28;;;;;;;10.25;8.50;;;;;;;0.11;81.93;99060.72;4980838;28;20410;-71
2023/11/18 01:58:54;;;;;;;10.05;9.02;;;;;;;0.06;82.41;99054.22;4994173;28;20026;-71
2023/11/18 02:01:20;;;;;;;10.20;9.20;;;;;;;0.16;82.23;99068.19;4963044;28;20054;-71
2023/11/18 02:03:47;;;;;;;12.63;8.73;;;;;;;0.12;82.27;99064.22;4946963;28;20031;-70
2023/11/18 02:06:13;;;;;;;10.57;9.48;;;;;;;0.12;81.90;99074.81;4966092;28;20038;-71
2023/11/18 02:08:39;;;;;;;11.23;10.02;;;;;;;0.10;82.25;99074.09;4993152;28;20033;-71
2023/11/18 02:11:41;;;;;;;13.52;11.55;;;;;;;0.02;81.90;99074.91;4993156;28;20109;-71
2023/11/18 02:14:11;;;;;;;11.98;10.77;;;;;;;0.08;81.75;99076.09;4975896;28;20057;-71
2023/11/18 02:16:38;;;;;;;13.48;12.00;;;;;;;-0.01;82.02;99065.47;4976732;28;20034;-71
2023/11/18 02:19:09;;;;;;;15.68;11.38;;;;;;;0.10;82.01;99074.94;4977869;28;20031;-71
2023/11/18 02:21:36;;;;;;;12.50;11.20;;;;;;;0.11;82.41;99081.06;4976541;28;20031;-71
2023/11/18 02:24:01;;;;;;;13.90;12.32;;;;;;;0.01;82.11;99075.88;4992000;28;20030;-72
2023/11/18 02:26:26;;;;;;;13.50;10.73;;;;;;;0.10;82.46;99090.00;4992293;28;20474;-71
2023/11/18 02:28:53;;;;;;;13.38;11.65;;;;;;;0.01;82.11;99081.19;4991386;28;20027;-71
2023/11/18 02:31:31;;;;;;;16.15;12.25;;;;;;;-0.01;82.26;99089.28;4991462;28;20042;-71
2023/11/18 02:34:03;;;;;;;12.95;11.65;;;;;;;-0.08;82.83;99088.25;4976780;28;20517;-71
2023/11/18 02:36:37;;;;;;;11.90;10.60;;;;;;;-0.11;81.95;99085.91;4978534;28;20062;-71
2023/11/18 02:39:10;;;;;;;11.07;9.93;;;;;;;-0.14;82.13;99080.09;4978288;28;20038;-71
2023/11/18 02:41:38;;;;;;;12.05;10.43;;;;;;;-0.17;82.36;99069.81;4978390;28;20054;-71
2023/11/18 02:44:09;;;;;;;10.07;9.07;;;;;;;-0.09;81.98;99083.91;4977821;28;20062;-71
2023/11/18 02:46:36;;;;;;;13.38;11.30;;;;;;;-0.07;82.00;99089.88;4978624;28;20042;-71
2023/11/18 02:49:02;;;;;;;11.82;10.27;;;;;;;-0.10;81.47;99090.22;4978061;28;20022;-71
2023/11/18 02:51:29;;;;;;;13.25;11.32;;;;;;;-0.14;82.07;99096.78;4994028;28;20092;-71
2023/11/18 02:53:55;;;;;;;10.98;9.88;;;;;;;-0.17;82.81;99099.75;4945837;28;20026;-70
2023/11/18 02:56:20;;;;;;;12.38;10.18;;;;;;;-0.27;81.90;99088.44;4993908;28;20065;-71
2023/11/18 02:58:46;;;;;;;10.57;9.48;;;;;;;-0.17;82.02;99110.34;4995447;28;20048;-71
2023/11/18 03:01:11;;;;;;;10.40;9.40;;;;;;;-0.14;82.08;99114.50;4994136;28;20406;-71
2023/11/18 03:03:36;;;;;;;10.10;8.93;;;;;;;-0.14;82.37;99119.81;4988749;28;20033;-70
2023/11/18 03:06:02;;;;;;;10.75;9.00;;;;;;;-0.15;81.84;99112.84;4974390;28;20475;-69
2023/11/18 03:08:29;;;;;;;11.75;10.25;;;;;;;-0.15;82.76;99108.38;4995125;28;20027;-69
2023/11/18 03:10:54;;;;;;;10.55;9.57;;;;;;;-0.16;82.30;99103.22;4974185;28;20045;-70
2023/11/18 03:13:20;;;;;;;11.70;9.55;;;;;;;-0.21;82.74;99102.88;4987851;28;20019;-68
2023/11/18 03:15:48;;;;;;;12.27;10.90;;;;;;;-0.20;82.96;99105.34;4971319;28;20038;-70
2023/11/18 03:18:15;;;;;;;14.98;11.70;;;;;;;-0.20;83.50;99105.34;4980704;28;20030;-70
2023/11/18 03:20:40;;;;;;;11.25;10.10;;;;;;;-0.24;83.07;99106.66;4980472;28;20049;-71
2023/11/18 03:23:08;;;;;;;12.23;10.02;;;;;;;-0.27;83.43;99104.31;4994429;28;20105;-70
2023/11/18 03:25:34;;;;;;;10.98;9.98;;;;;;;-0.22;83.55;99106.50;4992940;28;20124;-69
2023/11/18 03:28:00;;;;;;;13.90;12.10;;;;;;;-0.28;84.23;99092.06;4964887;28;20426;-69
2023/11/18 03:30:26;;;;;;;13.30;11.85;;;;;;;-0.17;84.87;99102.41;4981511;28;20114;-69
2023/11/18 03:32:51;;;;;;;10.18;8.77;;;;;;;-0.16;84.69;99093.47;4970362;28;20026;-70
2023/11/18 03:35:16;;;;;;;32.63;25.38;;;;;;;-0.19;84.12;99077.88;4988254;28;20038;-71
2023/11/18 03:37:42;;;;;;;30.30;24.17;;;;;;;-0.11;84.08;99099.13;4980535;28;20477;-72
2023/11/18 03:40:12;;;;;;;14.48;12.98;;;;;;;-0.11;84.42;99099.13;4964137;28;20039;-72
2023/11/18 03:42:38;;;;;;;11.95;10.77;;;;;;;-0.13;84.62;99106.41;4969522;28;20379;-70
2023/11/18 03:45:04;;;;;;;22.42;20.02;;;;;;;-0.12;84.24;99108.03;4987935;28;20044;-70
2023/11/18 03:47:30;;;;;;;30.90;27.58;;;;;;;-0.16;83.66;99109.34;4964873;28;20125;-72
2023/11/18 03:49:56;;;;;;;22.23;19.92;;;;;;;-0.20;84.19;99105.34;4980030;28;20034;-71
2023/11/18 03:52:21;;;;;;;15.93;14.32;;;;;;;-0.26;83.75;99100.69;4976659;28;20544;-71
2023/11/18 03:54:47;;;;;;;18.52;15.55;;;;;;;-0.24;83.36;99098.72;4963879;28;20037;-71
2023/11/18 03:57:12;;;;;;;16.92;15.27;;;;;;;-0.32;83.48;99096.00;4960666;28;20042;-72
2023/11/18 03:59:41;;;;;;;14.57;13.00;;;;;;;-0.29;83.71;99101.00;4947733;28;20113;-70
2023/11/18 04:02:07;;;;;;;15.48;13.90;;;;;;;-0.26;83.72;99108.63;4985096;28;20030;-72
2023/11/18 04:04:32;;;;;;;14.23;12.80;;;;;;;-0.30;83.81;99112.53;4958544;28;20184;-70
2023/11/18 04:06:57;;;;;;;13.05;11.70;;;;;;;-0.31;82.81;99113.56;4960330;28;20038;-69
2023/11/18 04:09:23;;;;;;;12.95;11.43;;;;;;;-0.32;83.18;99117.16;4984154;28;20026;-69
2023/11/18 04:11:49;;;;;;;12.90;11.20;;;;;;;-0.33;82.74;99126.09;4992080;28;20502;-71
2023/11/18 04:14:14;;;;;;;12.38;10.55;;;;;;;-0.34;82.79;99127.06;4993789;28;20022;-69
2023/11/18 04:16:40;;;;;;;13.38;9.93;;;;;;;-0.47;82.66;99125.81;4992345;28;20038;-69
2023/11/18 04:19:06;;;;;;;12.00;9.90;;;;;;;-0.37;83.32;99123.88;4992459;28;20512;-70
2023/11/18 04:21:31;;;;;;;11.50;10.40;;;;;;;-0.45;82.81;99122.03;4992425;28;20517;-70
2023/11/18 04:23:57;;;;;;;11.20;10.02;;;;;;;-0.43;82.88;99125.34;4976058;28;20037;-70
2023/11/18 04:26:24;;;;;;;9.85;8.75;;;;;;;-0.47;82.54;99117.88;4986192;28;20429;-69
2023/11/18 04:28:49;;;;;;;10.50;9.38;;;;;;;-0.42;82.71;99136.78;4970534;28;20026;-69
2023/11/18 04:31:15;;;;;;;10.45;9.02;;;;;;;-0.43;82.10;99133.28;4973047;28;20034;-70
2023/11/18 04:33:40;;;;;;;10.32;9.27;;;;;;;-0.51;82.77;99127.91;4969248;28;20053;-69
2023/11/18 04:36:09;;;;;;;10.90;9.30;;;;;;;-0.50;81.77;99123.47;4979825;28;20415;-70
2023/11/18 04:38:35;;;;;;;10.50;9.52;;;;;;;-0.48;81.96;99142.66;4993349;28;20026;-69
2023/11/18 04:41:03;;;;;;;13.00;11.52;;;;;;;-0.66;82.20;99134.72;4993318;28;20109;-71
2023/11/18 04:43:29;;;;;;;12.35;9.68;;;;;;;-0.68;82.44;99127.91;4991640;28;20033;-71
2023/11/18 04:45:55;;;;;;;9.77;8.75;;;;;;;-0.68;82.31;99125.28;4968063;28;20479;-72
2023/11/18 04:48:21;;;;;;;10.02;8.90;;;;;;;-0.72;81.94;99115.00;4954473;28;20022;-70
2023/11/18 04:50:46;;;;;;;9.30;8.40;;;;;;;-0.63;82.13;99112.44;4993158;28;20057;-71
2023/11/18 04:53:12;;;;;;;8.45;7.55;;;;;;;-0.64;81.61;99116.88;4975338;28;20026;-71
2023/11/18 04:55:37;;;;;;;10.00;9.10;;;;;;;-0.63;81.79;99110.59;4992619;28;20026;-70
2023/11/18 04:58:05;;;;;;;10.52;8.70;;;;;;;-0.59;81.55;99103.22;4975523;28;20650;-70
2023/11/18 05:00:34;;;;;;;8.63;7.80;;;;;;;-0.67;82.04;99093.38;4991561;28;20049;-71
2023/11/18 05:02:59;;;;;;;9.02;8.13;;;;;;;-0.62;81.36;99101.69;4990845;28;20030;-71
2023/11/18 05:05:24;;;;;;;9.18;8.32;;;;;;;-0.67;81.40;99096.03;4981491;28;20064;-71
2023/11/18 05:07:50;;;;;;;8.43;7.05;;;;;;;-0.78;81.88;99098.91;4992712;28;20037;-70
2023/11/18 05:10:15;;;;;;;9.02;8.07;;;;;;;-0.61;82.08;99105.19;4977714;28;20038;-69
2023/11/18 05:12:43;;;;;;;9.30;8.15;;;;;;;-0.64;81.65;99105.47;4984750;28;20026;-71
2023/11/18 05:15:09;;;;;;;9.80;8.85;;;;;;;-0.67;81.47;99106.59;4994569;28;20049;-70
2023/11/18 05:17:38;;;;;;;9.80;7.25;;;;;;;-0.89;81.73;99096.50;4964152;28;20379;-70
2023/11/18 05:20:04;;;;;;;8.95;7.78;;;;;;;-0.64;81.52;99111.59;4960473;28;20096;-71
2023/11/18 05:22:30;;;;;;;8.40;7.60;;;;;;;-0.64;80.88;99124.81;4960465;28;20050;-70
2023/11/18 05:24:56;;;;;;;9.50;8.60;;;;;;;-0.62;80.82;99125.50;4958892;28;20042;-70
2023/11/18 05:27:21;;;;;;;9.07;8.02;;;;;;;-0.64;81.17;99119.53;4971001;28;20030;-72
2023/11/18 05:29:54;;;;;;;8.20;7.50;;;;;;;-0.66;80.63;99113.56;4975255;28;20089;-71
2023/11/18 05:32:20;;;;;;;9.48;8.32;;;;;;;-0.62;80.98;99109.63;4991220;28;20482;-69
2023/11/18 05:34:46;;;;;;;9.88;8.88;;;;;;;-0.62;80.66;99114.09;4959000;28;20411;-72
2023/11/18 05:37:18;;;;;;;10.68;8.93;;;;;;;-0.60;81.18;99112.94;4991269;28;20045;-70
2023/11/18 05:39:45;;;;;;;24.52;19.38;;;;;;;-0.66;82.04;99112.72;4992245;28;20046;-70
2023/11/18 05:42:10;;;;;;;159.20;145.05;;;;;;;-0.66;82.04;99120.66;4974783;28;20753;-71
2023/11/18 05:44:41;;;;;;;19.70;14.88;;;;;;;-0.62;82.01;99120.22;4992474;28;20042;-69
2023/11/18 05:47:06;;;;;;;20.08;17.27;;;;;;;-0.63;81.13;99121.19;4991166;28;20088;-71
2023/11/18 05:49:33;;;;;;;14.65;13.10;;;;;;;-0.69;81.83;99113.84;4964051;28;20118;-69
2023/11/18 05:51:59;;;;;;;12.52;10.77;;;;;;;-0.67;81.17;99106.59;4972484;28;20038;-69
2023/11/18 05:54:24;;;;;;;10.60;9.60;;;;;;;-0.68;81.09;99111.06;4992245;28;20113;-68
2023/11/18 05:56:50;;;;;;;12.05;9.20;;;;;;;-0.64;81.05;99108.94;4990977;28;20042;-68
2023/11/18 05:59:15;;;;;;;11.45;9.82;;;;;;;-0.67;80.86;99117.19;4992172;28;20077;-69
2023/11/18 06:01:41;;;;;;;10.30;9.20;;;;;;;-0.70;81.34;99112.19;4978991;28;20109;-69
2023/11/18 06:04:08;;;;;;;10.23;9.23;;;;;;;-0.77;81.04;99100.56;4979776;28;20479;-69
2023/11/18 06:06:34;;;;;;;12.52;11.23;;;;;;;-0.72;80.94;99115.00;4968532;28;20046;-69
2023/11/18 06:09:04;;;;;;;36.10;32.63;;;;;;;-0.84;81.25;99110.09;4968312;28;20034;-69
2023/11/18 06:11:31;;;;;;;19.33;17.15;;;;;;;-0.85;81.18;99124.28;4958656;28;20035;-68
2023/11/18 06:13:57;;;;;;;14.85;12.07;;;;;;;-0.97;81.32;99105.16;4971069;28;20033;-68
2023/11/18 06:16:26;;;;;;;12.77;11.57;;;;;;;-0.90;80.91;99121.25;4994772;28;20045;-72
2023/11/18 06:18:55;;;;;;;10.88;9.02;;;;;;;-1.05;81.00;99128.03;4979139;28;20044;-68
2023/11/18 06:21:28;;;;;;;10.43;9.43;;;;;;;-0.99;80.85;99135.38;4965532;28;20038;-69
2023/11/18 06:23:54;;;;;;;10.13;9.23;;;;;;;-1.01;81.11;99124.09;4966212;28;20042;-69
2023/11/18 06:26:20;;;;;;;10.07;9.13;;;;;;;-0.96;81.25;99137.72;4971362;28;20054;-69
2023/11/18 06:28:46;;;;;;;11.15;10.07;;;;;;;-0.94;80.40;99139.22;4977287;28;20487;-69
2023/11/18 06:31:13;;;;;;;11.98;9.57;;;;;;;-1.06;80.93;99132.50;4946358;28;20029;-69
2023/11/18 06:33:42;;;;;;;9.60;8.60;;;;;;;-0.98;80.89;99134.41;4978236;28;20050;-69
2023/11/18 06:36:17;;;;;;;9.55;8.60;;;;;;;-0.91;80.32;99148.69;4978766;28;20493;-70
2023/11/18 06:38:44;;;;;;;10.07;8.93;;;;;;;-0.97;80.96;99138.69;4965332;28;20073;-69
2023/11/18 06:41:15;;;;;;;12.35;10.88;;;;;;;-0.88;80.63;99146.56;4949599;29;20109;-69
2023/11/18 06:46:28;;;;;;;19.25;16.90;;;;;;;-0.83;80.33;99139.00;4980249;28;20529;-69
2023/11/18 06:48:54;;;;;;;18.80;13.70;;;;;;;-0.98;80.66;99123.81;4940073;29;20046;-69
2023/11/18 06:51:24;;;;;;;17.95;15.00;;;;;;;-0.78;80.29;99149.13;4966084;28;20023;-70
2023/11/18 06:53:50;;;;;;;20.45;16.75;;;;;;;-0.78;80.79;99141.22;4977933;28;20051;-71
2023/11/18 06:56:16;;;;;;;20.77;18.80;;;;;;;-0.85;80.76;99130.41;4965028;28;20023;-69
2023/11/18 06:58:42;;;;;;;17.30;15.20;;;;;;;-0.74;80.65;99137.28;4970596;28;20521;-69
2023/11/18 07:01:14;;;;;;;22.23;20.33;;;;;;;-0.66;80.83;99132.06;4971298;28;20033;-69
2023/11/18 07:03:44;;;;;;;15.07;13.73;;;;;;;-0.68;80.81;99115.53;4985242;28;20078;-70
2023/11/18 07:06:09;;;;;;;11.38;10.32;;;;;;;-0.59;81.15;99129.66;4988926;28;20367;-68
2023/11/18 07:08:39;;;;;;;10.50;9.15;;;;;;;-0.60;80.44;99136.75;4965676;28;20041;-69
2023/11/18 07:11:05;;;;;;;9.88;8.10;;;;;;;-0.63;81.29;99139.69;4963400;28;20026;-70
2023/11/18 07:13:33;;;;;;;10.50;9.45;;;;;;;-0.57;81.16;99144.41;4966558;28;20049;-70
2023/11/18 07:16:03;;;;;;;11.52;10.10;;;;;;;-0.59;81.60;99143.72;4948952;28;20130;-70
2023/11/18 07:18:32;;;;;;;12.77;10.68;;;;;;;-0.67;81.71;99130.41;4952380;28;20039;-70
2023/11/18 07:20:59;;;;;;;11.35;10.30;;;;;;;-0.58;81.98;99136.63;4963255;28;20105;-69
2023/11/18 07:23:25;;;;;;;10.25;9.23;;;;;;;-0.46;82.19;99162.69;4976750;28;20049;-69
2023/11/18 07:25:50;;;;;;;10.60;9.55;;;;;;;-0.52;81.55;99142.13;4989758;28;20069;-69
2023/11/18 07:28:16;;;;;;;11.35;9.70;;;;;;;-0.37;81.07;99151.19;4983180;28;20541;-69
2023/11/18 07:30:47;;;;;;;14.60;13.00;;;;;;;-0.39;81.72;99137.28;4973600;28;20018;-69
2023/11/18 07:33:16;;;;;;;11.90;10.73;;;;;;;-0.34;81.84;99124.44;4968790;28;20045;-69
2023/11/18 07:35:42;;;;;;;19.75;15.80;;;;;;;-0.24;81.67;99125.19;4971063;28;20105;-69
2023/11/18 07:38:08;;;;;;;15.68;13.23;;;;;;;-0.13;82.57;99137.31;4968987;28;20474;-69
2023/11/18 07:40:33;;;;;;;14.75;13.27;;;;;;;-0.17;82.29;99133.34;4961588;28;20084;-70
2023/11/18 07:43:03;;;;;;;14.00;12.68;;;;;;;-0.11;82.29;99146.78;4973856;28;20039;-69
2023/11/18 07:45:37;;;;;;;11.85;10.65;;;;;;;-0.09;81.71;99160.69;4948450;28;20022;-69
2023/11/18 07:48:06;;;;;;;11.70;10.50;;;;;;;-0.17;82.14;99171.22;4977288;28;20124;-69
2023/11/18 07:50:32;;;;;;;11.70;10.60;;;;;;;-0.06;81.61;99176.28;4977318;28;20033;-69
2023/11/18 07:52:58;;;;;;;12.23;11.00;;;;;;;0.07;82.00;99172.41;4981331;28;20097;-70
2023/11/18 07:55:23;;;;;;;20.17;18.38;;;;;;;0.15;82.03;99168.00;4960674;28;20030;-68
2023/11/18 07:57:48;;;;;;;15.20;13.77;;;;;;;0.31;81.91;99156.66;4954465;28;20041;-69
2023/11/18 08:00:15;;;;;;;22.83;20.70;;;;;;;0.50;81.36;99167.06;4987418;28;20541;-69
2023/11/18 08:02:40;;;;;;;20.40;18.27;;;;;;;0.73;81.58;99184.06;4986965;28;20042;-69
2023/11/18 08:05:13;;;;;;;14.93;13.48;;;;;;;0.76;82.03;99178.47;4947188;28;20119;-69
2023/11/18 08:07:38;;;;;;;13.88;12.48;;;;;;;0.94;82.30;99192.47;4964700;28;20046;-69
2023/11/18 08:10:04;;;;;;;13.85;11.68;;;;;;;1.04;82.08;99187.88;4963684;28;20030;-70
2023/11/18 08:12:32;;;;;;;13.05;11.48;;;;;;;1.13;81.66;99180.75;4976249;28;20545;-71
2023/11/18 08:14:59;;;;;;;12.98;11.70;;;;;;;1.21;82.09;99178.97;4967418;28;20037;-69
2023/11/18 08:17:25;;;;;;;14.48;12.55;;;;;;;1.13;82.10;99154.25;4976090;28;20644;-71
2023/11/18 08:19:52;;;;;;;15.27;13.68;;;;;;;1.26;82.06;99168.69;4963758;28;20037;-67
2023/11/18 08:22:18;;;;;;;20.23;17.95;;;;;;;1.29;82.09;99160.44;4962839;28;20045;-72
2023/11/18 08:24:44;;;;;;;23.23;19.42;;;;;;;1.34;81.85;99173.22;4975435;28;20030;-71
2023/11/18 08:27:11;;;;;;;24.27;20.40;;;;;;;1.23;82.02;99153.13;4976361;28;20068;-72
2023/11/18 08:29:37;;;;;;;17.90;15.85;;;;;;;1.30;82.14;99161.25;4969138;28;20082;-68
2023/11/18 08:32:03;;;;;;;11.32;10.32;;;;;;;1.33;82.51;99155.66;4968694;28;20042;-68
2023/11/18 08:34:29;;;;;;;12.85;10.40;;;;;;;1.34;82.43;99168.72;4980744;28;20022;-69
2023/11/18 08:36:54;;;;;;;11.77;10.63;;;;;;;1.29;82.76;99171.03;4959954;28;20034;-71
2023/11/18 08:39:20;;;;;;;13.10;11.77;;;;;;;1.17;83.18;99174.97;4953552;28;20027;-72
2023/11/18 08:41:46;;;;;;;11.80;10.70;;;;;;;1.15;82.44;99163.69;4969794;28;20042;-71
2023/11/18 08:44:12;;;;;;;15.95;14.23;;;;;;;1.39;82.22;99187.66;4985293;28;20057;-71
2023/11/18 08:46:39;;;;;;;13.57;12.27;;;;;;;1.35;82.50;99175.69;4969861;28;20138;-71
2023/11/18 08:49:10;;;;;;;17.25;15.45;;;;;;;1.28;82.48;99179.97;4963753;28;20022;-71
2023/11/18 08:51:38;;;;;;;25.58;22.88;;;;;;;1.28;82.18;99187.94;4947734;28;20045;-71
2023/11/18 08:54:22;;;;;;;17.05;15.25;;;;;;;1.38;82.50;99201.91;4975759;28;20509;-71
2023/11/18 08:56:51;;;;;;;16.40;14.65;;;;;;;1.35;82.80;99210.19;4980005;28;20614;-71
2023/11/18 08:59:24;;;;;;;21.08;18.95;;;;;;;1.55;81.98;99207.25;4991876;28;20037;-72
2023/11/18 09:01:55;;;;;;;19.98;18.02;;;;;;;1.53;82.88;99209.25;4970953;28;20049;-71
2023/11/18 09:04:23;;;;;;;22.55;19.42;;;;;;;1.63;83.04;99200.16;4963214;28;20062;-71
2023/11/18 09:06:48;;;;;;;23.67;21.30;;;;;;;1.68;84.31;99200.47;4962476;28;20033;-72
2023/11/18 09:09:15;;;;;;;26.42;23.58;;;;;;;1.83;83.95;99195.34;4959679;28;20042;-71
2023/11/18 09:11:41;;;;;;;27.05;24.17;;;;;;;1.91;84.04;99198.03;4975624;28;20393;-72
2023/11/18 09:14:08;;;;;;;22.70;20.30;;;;;;;1.82;83.32;99193.72;4975476;28;20038;-71
2023/11/18 09:16:38;;;;;;;19.20;17.00;;;;;;;1.96;83.31;99195.72;4949618;28;20109;-71
2023/11/18 09:19:05;;;;;;;20.75;18.27;;;;;;;1.98;83.15;99188.41;4975550;28;20544;-71
2023/11/18 09:21:35;;;;;;;19.65;17.63;;;;;;;1.98;82.97;99164.50;4963273;28;20089;-72
2023/11/18 09:24:02;;;;;;;20.52;18.38;;;;;;;2.11;82.71;99167.47;4973881;28;20133;-69
2023/11/18 09:26:29;;;;;;;19.15;17.23;;;;;;;2.22;83.36;99172.44;4963975;28;20470;-69
2023/11/18 09:28:55;;;;;;;18.90;17.00;;;;;;;2.40;82.77;99173.09;4962665;28;20085;-70
2023/11/18 09:31:21;;;;;;;17.80;16.10;;;;;;;2.39;82.51;99155.50;4975147;28;20117;-69
2023/11/18 09:33:52;;;;;;;18.25;16.42;;;;;;;2.60;82.66;99169.06;4945845;28;20042;-69
2023/11/18 09:36:18;;;;;;;19.23;16.00;;;;;;;2.69;81.96;99149.44;4992548;28;20121;-70
2023/11/18 09:38:46;;;;;;;18.10;16.23;;;;;;;2.79;82.09;99152.72;4990461;28;20050;-69
2023/11/18 09:41:12;;;;;;;18.35;16.00;;;;;;;2.98;82.68;99166.63;4965373;28;20038;-70
2023/11/18 09:43:45;;;;;;;21.63;17.50;;;;;;;3.02;82.34;99178.56;4945260;28;20027;-70
2023/11/18 09:46:14;;;;;;;16.27;14.15;;;;;;;3.04;82.76;99165.91;4933987;28;20042;-69
2023/11/18 09:48:47;;;;;;;17.85;16.00;;;;;;;3.17;82.09;99163.53;4972390;28;20038;-69
2023/11/18 09:51:16;;;;;;;17.73;14.95;;;;;;;3.25;82.57;99156.34;4975297;28;20038;-69
2023/11/18 09:53:46;;;;;;;21.77;19.38;;;;;;;3.32;82.67;99159.97;4962139;28;20030;-69
2023/11/18 09:56:26;;;;;;;22.02;19.83;;;;;;;3.18;82.80;99141.22;4975173;28;20042;-70
2023/11/18 09:59:16;;;;;;;20.73;18.60;;;;;;;3.24;82.84;99172.50;4959801;28;20113;-70
2023/11/18 10:01:44;;;;;;;18.95;17.05;;;;;;;3.39;83.61;99154.75;4961806;28;20137;-72
2023/11/18 10:04:10;;;;;;;18.08;16.23;;;;;;;3.46;83.42;99150.41;4973862;28;20065;-69
2023/11/18 10:06:38;;;;;;;17.10;14.75;;;;;;;3.65;84.10;99147.28;4961353;28;20039;-72
2023/11/18 10:09:15;;;;;;;15.20;13.70;;;;;;;3.84;82.96;99151.31;4941283;28;20027;-70
2023/11/18 10:11:46;;;;;;;16.27;14.63;;;;;;;3.94;82.81;99134.09;4978287;28;20513;-71
2023/11/18 10:14:15;;;;;;;16.58;14.98;;;;;;;4.02;82.81;99152.66;4974685;28;20069;-70
2023/11/18 10:16:41;;;;;;;17.88;16.23;;;;;;;4.12;82.73;99163.91;4967978;28;20105;-71
2023/11/18 10:19:08;;;;;;;18.27;16.38;;;;;;;4.20;82.56;99145.16;4961531;28;20043;-72
2023/11/18 10:21:40;;;;;;;20.50;18.38;;;;;;;4.35;82.13;99152.34;4927716;28;20022;-69
2023/11/18 10:24:14;;;;;;;17.23;15.52;;;;;;;4.26;81.90;99137.44;4940914;28;20427;-72
2023/11/18 10:26:44;;;;;;;15.45;13.93;;;;;;;4.31;81.19;99133.25;4973849;28;20177;-72
2023/11/18 10:29:10;;;;;;;14.30;12.80;;;;;;;4.48;81.57;99160.59;4974710;28;20038;-72
2023/11/18 10:31:37;;;;;;;15.48;13.98;;;;;;;4.47;80.54;99145.56;4974802;28;20026;-71
2023/11/18 10:34:03;;;;;;;17.80;16.00;;;;;;;4.28;81.58;99135.44;4970881;28;20086;-70
2023/11/18 10:36:31;;;;;;;19.75;17.75;;;;;;;4.19;82.71;99148.84;4965599;28;20022;-70
2023/11/18 10:38:56;;;;;;;21.15;18.88;;;;;;;4.15;83.02;99155.53;4961772;28;20153;-71
2023/11/18 10:41:22;;;;;;;21.42;19.15;;;;;;;4.18;83.62;99162.34;4974278;28;20030;-71
2023/11/18 10:43:48;;;;;;;22.77;20.38;;;;;;;4.44;82.71;99156.59;4978108;28;20074;-72
2023/11/18 10:46:18;;;;;;;22.00;19.60;;;;;;;4.47;82.33;99145.56;4960894;28;20152;-71
2023/11/18 10:48:47;;;;;;;22.27;19.38;;;;;;;4.58;82.34;99155.78;4968746;28;20070;-70
2023/11/18 10:51:15;;;;;;;23.08;20.70;;;;;;;4.61;82.84;99163.44;4983926;28;20057;-70
2023/11/18 10:54:03;;;;;;;25.02;22.40;;;;;;;4.59;83.11;99160.13;4974113;28;20034;-70
2023/11/18 10:56:29;;;;;;;34.85;27.42;;;;;;;4.41;83.96;99152.47;4951861;28;20035;-70
2023/11/18 10:58:58;;;;;;;23.60;21.02;;;;;;;4.42;83.24;99142.63;4953968;28;20476;-71
2023/11/18 11:01:43;;;;;;;25.73;22.27;;;;;;;4.52;83.64;99137.84;4969599;28;20037;-70
2023/11/18 11:04:10;;;;;;;24.53;21.30;;;;;;;4.47;82.64;99130.41;4973837;28;20061;-70
2023/11/18 11:06:41;;;;;;;23.15;20.65;;;;;;;4.61;82.08;99136.75;4960472;28;20034;-70
2023/11/18 11:09:09;;;;;;;21.85;19.52;;;;;;;4.73;82.69;99140.63;4970448;28;20538;-71
2023/11/18 11:11:47;;;;;;;22.30;19.15;;;;;;;4.75;82.28;99143.94;4965986;28;20121;-69
2023/11/18 11:14:17;;;;;;;25.08;22.30;;;;;;;4.74;83.03;99152.94;4963914;28;20113;-70
2023/11/18 11:16:45;;;;;;;28.42;24.48;;;;;;;4.67;82.64;99146.69;4977931;28;20026;-69
2023/11/18 11:19:22;;;;;;;28.85;23.70;;;;;;;4.62;82.87;99138.44;4993950;28;20066;-69
2023/11/18 11:21:55;;;;;;;28.60;24.17;;;;;;;4.51;84.07;99136.19;4967891;28;20040;-70
2023/11/18 11:24:37;;;;;;;30.05;24.88;;;;;;;4.56;84.24;99139.16;4973837;28;20491;-71
2023/11/18 11:27:23;;;;;;;31.25;24.27;;;;;;;4.61;84.97;99142.09;4970517;28;20038;-70
2023/11/18 11:30:10;;;;;;;32.20;25.60;;;;;;;4.70;84.54;99144.50;4972992;28;20031;-70